KNKX/NKX METAR and TAF weather

Enter ICAO airport designator
Station Type Date Time Source
KNKX METAR 2019/10/18 10:55 UTC NOAA

KNKX 181055Z 00000KT 10SM FEW018 15/11 A2987 RMK AO2 SLP109 T01500111 $


Station Type Date Time Source
KNKX Decoded METAR 2019/10/18 10:55 UTC NOAA

MCAS MIRAMAR, CA, United States (KNKX) 32-52N 117-09W 146M
Oct 18, 2019 - 06:55 AM EDT / 2019.10.18 1055 UTC
Wind: Calm:0
Visibility: 10 mile(s):0
Sky conditions: mostly clear
Temperature: 59.0 F (15.0 C)
Dew Point: 52.0 F (11.1 C)
Relative Humidity: 77%
Pressure (altimeter): 29.87 in. Hg (1011 hPa)
ob: KNKX 181055Z 00000KT 10SM FEW018 15/11 A2987 RMK AO2 SLP109 T01500111
cycle: 11

Station Type Date Time Source
KNKX TAF 2019/10/18 09:59 UTC NOAA

TAF KNKX 1809/1909 VRB05KT 9999 OVC015 QNH2985INS /
BECMG 1817/1819 30008KT 9999 SKC QNH2987INS
BECMG 1902/1904 VRB05KT 9999 OVC015 QNH2988INS T13/1813Z T24/1821Z

Example: see airport list